sensor_id;sensor_type;location;lat;lon;timestamp;P1;durP1;ratioP1;P2;durP2;ratioP2
53293;SDS011;39181;53.440;5.644;2022-07-29T00:01:05;4.30;;;0.40;;
53293;SDS011;39181;53.440;5.644;2022-07-29T00:03:31;2.85;;;0.50;;
53293;SDS011;39181;53.440;5.644;2022-07-29T00:05:57;2.65;;;0.80;;
53293;SDS011;39181;53.440;5.644;2022-07-29T00:08:23;4.15;;;0.68;;
53293;SDS011;39181;53.440;5.644;2022-07-29T00:10:48;2.05;;;0.77;;
53293;SDS011;39181;53.440;5.644;2022-07-29T00:13:14;3.72;;;0.70;;
53293;SDS011;39181;53.440;5.644;2022-07-29T00:15:40;2.85;;;0.60;;
53293;SDS011;39181;53.440;5.644;2022-07-29T00:18:05;4.00;;;0.98;;
53293;SDS011;39181;53.440;5.644;2022-07-29T00:20:31;7.95;;;0.68;;
53293;SDS011;39181;53.440;5.644;2022-07-29T00:22:57;3.80;;;0.60;;
53293;SDS011;39181;53.440;5.644;2022-07-29T00:25:22;4.95;;;0.55;;
53293;SDS011;39181;53.440;5.644;2022-07-29T00:27:48;5.47;;;0.70;;
53293;SDS011;39181;53.440;5.644;2022-07-29T00:30:14;3.35;;;0.90;;
53293;SDS011;39181;53.440;5.644;2022-07-29T00:32:39;3.65;;;0.80;;
53293;SDS011;39181;53.440;5.644;2022-07-29T00:35:06;2.15;;;0.60;;
53293;SDS011;39181;53.440;5.644;2022-07-29T00:37:51;4.45;;;0.93;;
53293;SDS011;39181;53.440;5.644;2022-07-29T00:40:16;7.05;;;0.65;;
53293;SDS011;39181;53.440;5.644;2022-07-29T00:42:43;2.25;;;0.80;;
53293;SDS011;39181;53.440;5.644;2022-07-29T00:45:13;9.10;;;1.48;;
53293;SDS011;39181;53.440;5.644;2022-07-29T00:47:39;2.58;;;0.70;;
53293;SDS011;39181;53.440;5.644;2022-07-29T00:50:05;6.88;;;0.60;;
53293;SDS011;39181;53.440;5.644;2022-07-29T00:52:33;6.40;;;0.98;;
53293;SDS011;39181;53.440;5.644;2022-07-29T00:55:00;1.10;;;0.60;;
53293;SDS011;39181;53.440;5.644;2022-07-29T00:57:27;2.33;;;0.70;;
53293;SDS011;39181;53.440;5.644;2022-07-29T00:59:53;1.85;;;0.50;;
53293;SDS011;39181;53.440;5.644;2022-07-29T01:02:18;3.60;;;0.77;;
53293;SDS011;39181;53.440;5.644;2022-07-29T01:04:44;4.82;;;0.70;;
53293;SDS011;39181;53.440;5.644;2022-07-29T01:07:09;2.63;;;0.57;;
53293;SDS011;39181;53.440;5.644;2022-07-29T01:09:35;2.15;;;0.57;;
53293;SDS011;39181;53.440;5.644;2022-07-29T01:12:02;3.05;;;0.75;;
53293;SDS011;39181;53.440;5.644;2022-07-29T01:14:28;2.55;;;0.45;;
53293;SDS011;39181;53.440;5.644;2022-07-29T01:16:58;4.20;;;0.73;;
53293;SDS011;39181;53.440;5.644;2022-07-29T01:22:18;3.38;;;0.60;;
53293;SDS011;39181;53.440;5.644;2022-07-29T01:24:56;2.33;;;0.52;;
53293;SDS011;39181;53.440;5.644;2022-07-29T01:31:02;2.90;;;0.65;;
53293;SDS011;39181;53.440;5.644;2022-07-29T01:33:29;4.32;;;0.63;;
53293;SDS011;39181;53.440;5.644;2022-07-29T01:36:14;5.25;;;0.90;;
53293;SDS011;39181;53.440;5.644;2022-07-29T01:38:44;8.25;;;0.80;;
53293;SDS011;39181;53.440;5.644;2022-07-29T01:41:16;3.83;;;1.20;;
53293;SDS011;39181;53.440;5.644;2022-07-29T01:43:49;1.85;;;0.82;;
53293;SDS011;39181;53.440;5.644;2022-07-29T01:46:23;3.35;;;0.80;;
53293;SDS011;39181;53.440;5.644;2022-07-29T01:48:55;2.58;;;0.80;;
53293;SDS011;39181;53.440;5.644;2022-07-29T01:51:41;4.43;;;0.80;;
53293;SDS011;39181;53.440;5.644;2022-07-29T01:54:14;4.05;;;0.80;;
53293;SDS011;39181;53.440;5.644;2022-07-29T01:57:01;2.55;;;0.73;;
53293;SDS011;39181;53.440;5.644;2022-07-29T01:59:29;6.28;;;0.85;;
53293;SDS011;39181;53.440;5.644;2022-07-29T02:01:58;5.07;;;0.80;;
53293;SDS011;39181;53.440;5.644;2022-07-29T02:04:26;4.35;;;0.50;;
53293;SDS011;39181;53.440;5.644;2022-07-29T02:06:53;6.03;;;1.20;;
53293;SDS011;39181;53.440;5.644;2022-07-29T02:09:21;4.40;;;0.73;;
53293;SDS011;39181;53.440;5.644;2022-07-29T02:11:51;2.92;;;0.75;;
53293;SDS011;39181;53.440;5.644;2022-07-29T02:14:19;5.10;;;0.85;;
53293;SDS011;39181;53.440;5.644;2022-07-29T02:16:47;4.03;;;0.80;;
53293;SDS011;39181;53.440;5.644;2022-07-29T02:19:17;11.63;;;1.38;;
53293;SDS011;39181;53.440;5.644;2022-07-29T02:21:44;3.33;;;1.05;;
53293;SDS011;39181;53.440;5.644;2022-07-29T02:24:11;4.00;;;0.70;;
53293;SDS011;39181;53.440;5.644;2022-07-29T02:26:39;4.28;;;1.10;;
53293;SDS011;39181;53.440;5.644;2022-07-29T02:29:06;3.08;;;0.80;;
53293;SDS011;39181;53.440;5.644;2022-07-29T02:31:34;8.02;;;1.05;;
53293;SDS011;39181;53.440;5.644;2022-07-29T02:34:03;5.05;;;0.75;;
53293;SDS011;39181;53.440;5.644;2022-07-29T02:36:32;4.13;;;0.80;;
53293;SDS011;39181;53.440;5.644;2022-07-29T02:38:59;4.35;;;1.00;;
53293;SDS011;39181;53.440;5.644;2022-07-29T02:41:28;2.65;;;0.90;;
53293;SDS011;39181;53.440;5.644;2022-07-29T02:44:01;6.53;;;1.00;;
53293;SDS011;39181;53.440;5.644;2022-07-29T02:46:36;2.92;;;0.70;;
53293;SDS011;39181;53.440;5.644;2022-07-29T02:49:12;4.88;;;0.80;;
53293;SDS011;39181;53.440;5.644;2022-07-29T02:51:51;6.43;;;1.58;;
53293;SDS011;39181;53.440;5.644;2022-07-29T02:54:33;4.15;;;0.90;;
53293;SDS011;39181;53.440;5.644;2022-07-29T02:57:19;8.02;;;1.48;;
53293;SDS011;39181;53.440;5.644;2022-07-29T02:59:48;4.40;;;1.45;;
53293;SDS011;39181;53.440;5.644;2022-07-29T03:02:16;5.70;;;0.90;;
53293;SDS011;39181;53.440;5.644;2022-07-29T03:04:43;2.88;;;0.70;;
53293;SDS011;39181;53.440;5.644;2022-07-29T03:07:11;4.65;;;1.10;;
53293;SDS011;39181;53.440;5.644;2022-07-29T03:09:40;6.00;;;1.02;;
53293;SDS011;39181;53.440;5.644;2022-07-29T03:12:06;4.75;;;1.20;;
53293;SDS011;39181;53.440;5.644;2022-07-29T03:14:33;3.67;;;0.90;;
53293;SDS011;39181;53.440;5.644;2022-07-29T03:16:59;3.40;;;0.80;;
53293;SDS011;39181;53.440;5.644;2022-07-29T03:19:25;6.38;;;0.80;;
53293;SDS011;39181;53.440;5.644;2022-07-29T03:21:51;5.15;;;1.08;;
53293;SDS011;39181;53.440;5.644;2022-07-29T03:24:26;6.57;;;0.90;;
53293;SDS011;39181;53.440;5.644;2022-07-29T03:26:54;5.30;;;1.00;;
53293;SDS011;39181;53.440;5.644;2022-07-29T03:29:21;5.93;;;1.35;;
53293;SDS011;39181;53.440;5.644;2022-07-29T03:31:47;7.22;;;1.10;;
53293;SDS011;39181;53.440;5.644;2022-07-29T03:34:12;8.43;;;0.90;;
53293;SDS011;39181;53.440;5.644;2022-07-29T03:36:38;4.60;;;1.00;;
53293;SDS011;39181;53.440;5.644;2022-07-29T03:39:03;7.13;;;1.08;;
53293;SDS011;39181;53.440;5.644;2022-07-29T03:41:30;7.20;;;1.10;;
53293;SDS011;39181;53.440;5.644;2022-07-29T03:43:58;6.13;;;1.30;;
53293;SDS011;39181;53.440;5.644;2022-07-29T03:46:25;6.80;;;1.05;;
53293;SDS011;39181;53.440;5.644;2022-07-29T03:48:54;7.38;;;1.20;;
53293;SDS011;39181;53.440;5.644;2022-07-29T03:51:23;3.47;;;1.08;;
53293;SDS011;39181;53.440;5.644;2022-07-29T03:53:49;7.75;;;1.52;;
53293;SDS011;39181;53.440;5.644;2022-07-29T03:56:15;10.15;;;1.70;;
53293;SDS011;39181;53.440;5.644;2022-07-29T03:58:45;7.43;;;1.10;;
53293;SDS011;39181;53.440;5.644;2022-07-29T04:01:11;5.20;;;1.05;;
53293;SDS011;39181;53.440;5.644;2022-07-29T04:03:37;4.43;;;1.30;;
53293;SDS011;39181;53.440;5.644;2022-07-29T04:06:04;6.72;;;1.35;;
53293;SDS011;39181;53.440;5.644;2022-07-29T04:08:32;6.15;;;1.15;;
53293;SDS011;39181;53.440;5.644;2022-07-29T04:10:58;6.03;;;1.45;;
53293;SDS011;39181;53.440;5.644;2022-07-29T04:13:24;5.60;;;0.88;;
53293;SDS011;39181;53.440;5.644;2022-07-29T04:15:50;7.18;;;1.10;;
53293;SDS011;39181;53.440;5.644;2022-07-29T04:18:16;2.72;;;0.93;;
53293;SDS011;39181;53.440;5.644;2022-07-29T04:20:41;4.05;;;0.80;;
53293;SDS011;39181;53.440;5.644;2022-07-29T04:23:07;8.73;;;1.30;;
53293;SDS011;39181;53.440;5.644;2022-07-29T04:25:32;4.05;;;0.80;;
53293;SDS011;39181;53.440;5.644;2022-07-29T04:27:58;5.65;;;1.30;;
53293;SDS011;39181;53.440;5.644;2022-07-29T04:30:26;6.47;;;0.98;;
53293;SDS011;39181;53.440;5.644;2022-07-29T04:32:52;6.35;;;1.60;;
53293;SDS011;39181;53.440;5.644;2022-07-29T04:35:19;3.50;;;0.98;;
53293;SDS011;39181;53.440;5.644;2022-07-29T04:37:44;2.08;;;0.60;;
53293;SDS011;39181;53.440;5.644;2022-07-29T04:40:10;5.03;;;1.10;;
53293;SDS011;39181;53.440;5.644;2022-07-29T04:42:36;3.47;;;0.82;;
53293;SDS011;39181;53.440;5.644;2022-07-29T04:45:02;4.90;;;0.90;;
53293;SDS011;39181;53.440;5.644;2022-07-29T04:47:28;4.80;;;0.90;;
53293;SDS011;39181;53.440;5.644;2022-07-29T04:49:54;9.55;;;1.50;;
53293;SDS011;39181;53.440;5.644;2022-07-29T04:52:21;5.43;;;1.00;;
53293;SDS011;39181;53.440;5.644;2022-07-29T04:54:47;5.60;;;0.90;;
53293;SDS011;39181;53.440;5.644;2022-07-29T04:57:12;7.57;;;0.90;;
53293;SDS011;39181;53.440;5.644;2022-07-29T04:59:38;9.63;;;1.40;;
53293;SDS011;39181;53.440;5.644;2022-07-29T05:02:04;4.22;;;0.80;;
53293;SDS011;39181;53.440;5.644;2022-07-29T05:04:29;4.75;;;1.00;;
53293;SDS011;39181;53.440;5.644;2022-07-29T05:06:55;4.65;;;0.85;;
53293;SDS011;39181;53.440;5.644;2022-07-29T05:09:20;6.22;;;1.00;;
53293;SDS011;39181;53.440;5.644;2022-07-29T05:11:46;5.95;;;0.90;;
53293;SDS011;39181;53.440;5.644;2022-07-29T05:14:11;5.03;;;0.90;;
53293;SDS011;39181;53.440;5.644;2022-07-29T05:16:37;5.53;;;1.20;;
53293;SDS011;39181;53.440;5.644;2022-07-29T05:19:04;6.10;;;1.30;;
53293;SDS011;39181;53.440;5.644;2022-07-29T05:21:30;5.88;;;1.15;;
53293;SDS011;39181;53.440;5.644;2022-07-29T05:23:55;3.20;;;1.02;;
53293;SDS011;39181;53.440;5.644;2022-07-29T05:26:21;5.95;;;0.90;;
53293;SDS011;39181;53.440;5.644;2022-07-29T05:28:46;2.45;;;0.60;;
53293;SDS011;39181;53.440;5.644;2022-07-29T05:31:12;6.85;;;1.00;;
53293;SDS011;39181;53.440;5.644;2022-07-29T05:33:39;4.43;;;1.17;;
53293;SDS011;39181;53.440;5.644;2022-07-29T05:36:06;3.60;;;0.88;;
53293;SDS011;39181;53.440;5.644;2022-07-29T05:38:32;4.88;;;1.02;;
53293;SDS011;39181;53.440;5.644;2022-07-29T05:40:58;2.92;;;0.77;;
53293;SDS011;39181;53.440;5.644;2022-07-29T05:43:25;8.60;;;1.13;;
53293;SDS011;39181;53.440;5.644;2022-07-29T05:45:51;6.90;;;1.08;;
53293;SDS011;39181;53.440;5.644;2022-07-29T05:48:17;3.95;;;1.10;;
53293;SDS011;39181;53.440;5.644;2022-07-29T05:50:42;4.60;;;1.00;;
53293;SDS011;39181;53.440;5.644;2022-07-29T05:53:08;5.10;;;1.20;;
53293;SDS011;39181;53.440;5.644;2022-07-29T05:55:33;2.90;;;1.15;;
53293;SDS011;39181;53.440;5.644;2022-07-29T05:57:59;4.57;;;1.13;;
53293;SDS011;39181;53.440;5.644;2022-07-29T06:00:25;5.25;;;0.98;;
53293;SDS011;39181;53.440;5.644;2022-07-29T06:02:50;4.68;;;1.10;;
53293;SDS011;39181;53.440;5.644;2022-07-29T06:05:16;5.15;;;1.00;;
53293;SDS011;39181;53.440;5.644;2022-07-29T06:07:42;6.85;;;1.52;;
53293;SDS011;39181;53.440;5.644;2022-07-29T06:10:07;3.22;;;0.90;;
53293;SDS011;39181;53.440;5.644;2022-07-29T06:12:34;4.72;;;1.45;;
53293;SDS011;39181;53.440;5.644;2022-07-29T06:14:59;4.75;;;1.00;;
53293;SDS011;39181;53.440;5.644;2022-07-29T06:17:25;3.88;;;1.48;;
53293;SDS011;39181;53.440;5.644;2022-07-29T06:19:50;11.73;;;1.52;;
53293;SDS011;39181;53.440;5.644;2022-07-29T06:22:16;3.40;;;1.42;;
53293;SDS011;39181;53.440;5.644;2022-07-29T06:24:42;2.72;;;0.90;;
53293;SDS011;39181;53.440;5.644;2022-07-29T06:27:09;5.72;;;1.30;;
53293;SDS011;39181;53.440;5.644;2022-07-29T06:29:35;7.57;;;1.00;;
53293;SDS011;39181;53.440;5.644;2022-07-29T06:32:01;3.05;;;0.70;;
53293;SDS011;39181;53.440;5.644;2022-07-29T06:34:27;2.65;;;1.05;;
53293;SDS011;39181;53.440;5.644;2022-07-29T06:36:53;6.03;;;0.80;;
53293;SDS011;39181;53.440;5.644;2022-07-29T06:39:18;6.63;;;1.02;;
53293;SDS011;39181;53.440;5.644;2022-07-29T06:41:48;3.90;;;0.98;;
53293;SDS011;39181;53.440;5.644;2022-07-29T06:44:15;6.43;;;1.52;;
53293;SDS011;39181;53.440;5.644;2022-07-29T06:46:41;3.38;;;1.02;;
53293;SDS011;39181;53.440;5.644;2022-07-29T06:49:07;7.68;;;1.08;;
53293;SDS011;39181;53.440;5.644;2022-07-29T06:51:33;6.90;;;1.20;;
53293;SDS011;39181;53.440;5.644;2022-07-29T06:53:59;6.00;;;1.27;;
53293;SDS011;39181;53.440;5.644;2022-07-29T06:56:25;6.85;;;1.10;;
53293;SDS011;39181;53.440;5.644;2022-07-29T06:58:51;4.68;;;1.15;;
53293;SDS011;39181;53.440;5.644;2022-07-29T07:01:17;5.25;;;1.10;;
53293;SDS011;39181;53.440;5.644;2022-07-29T07:03:42;7.35;;;1.50;;
53293;SDS011;39181;53.440;5.644;2022-07-29T07:06:08;4.65;;;0.95;;
53293;SDS011;39181;53.440;5.644;2022-07-29T07:08:33;5.10;;;1.20;;
53293;SDS011;39181;53.440;5.644;2022-07-29T07:10:59;9.30;;;0.98;;
53293;SDS011;39181;53.440;5.644;2022-07-29T07:13:25;5.53;;;1.13;;
53293;SDS011;39181;53.440;5.644;2022-07-29T07:15:51;7.07;;;1.15;;
53293;SDS011;39181;53.440;5.644;2022-07-29T07:18:17;5.50;;;1.13;;
53293;SDS011;39181;53.440;5.644;2022-07-29T07:20:43;4.78;;;1.40;;
53293;SDS011;39181;53.440;5.644;2022-07-29T07:23:10;2.80;;;0.88;;
53293;SDS011;39181;53.440;5.644;2022-07-29T07:25:35;4.97;;;0.80;;
53293;SDS011;39181;53.440;5.644;2022-07-29T07:28:01;2.60;;;0.88;;
53293;SDS011;39181;53.440;5.644;2022-07-29T07:30:28;5.18;;;0.90;;
53293;SDS011;39181;53.440;5.644;2022-07-29T07:32:54;8.70;;;1.40;;
53293;SDS011;39181;53.440;5.644;2022-07-29T07:35:20;6.03;;;1.00;;
53293;SDS011;39181;53.440;5.644;2022-07-29T07:37:46;4.47;;;1.35;;
53293;SDS011;39181;53.440;5.644;2022-07-29T07:40:12;3.72;;;1.00;;
53293;SDS011;39181;53.440;5.644;2022-07-29T07:42:38;7.10;;;1.08;;
53293;SDS011;39181;53.440;5.644;2022-07-29T07:45:05;7.13;;;1.63;;
53293;SDS011;39181;53.440;5.644;2022-07-29T07:47:31;7.32;;;1.25;;
53293;SDS011;39181;53.440;5.644;2022-07-29T07:49:57;5.88;;;0.85;;
53293;SDS011;39181;53.440;5.644;2022-07-29T07:52:23;5.88;;;1.40;;
53293;SDS011;39181;53.440;5.644;2022-07-29T07:54:49;4.65;;;0.90;;
53293;SDS011;39181;53.440;5.644;2022-07-29T07:57:14;6.50;;;1.48;;
53293;SDS011;39181;53.440;5.644;2022-07-29T07:59:40;6.90;;;1.67;;
53293;SDS011;39181;53.440;5.644;2022-07-29T08:02:06;6.50;;;1.00;;
53293;SDS011;39181;53.440;5.644;2022-07-29T08:04:32;6.07;;;1.10;;
53293;SDS011;39181;53.440;5.644;2022-07-29T08:06:59;7.30;;;1.10;;
53293;SDS011;39181;53.440;5.644;2022-07-29T08:09:26;7.07;;;1.35;;
53293;SDS011;39181;53.440;5.644;2022-07-29T08:11:52;4.20;;;1.00;;
53293;SDS011;39181;53.440;5.644;2022-07-29T08:14:18;3.85;;;1.00;;
53293;SDS011;39181;53.440;5.644;2022-07-29T08:16:44;5.78;;;1.15;;
53293;SDS011;39181;53.440;5.644;2022-07-29T08:19:10;6.13;;;1.17;;
53293;SDS011;39181;53.440;5.644;2022-07-29T08:21:35;6.60;;;1.13;;
53293;SDS011;39181;53.440;5.644;2022-07-29T08:24:02;5.22;;;1.10;;
53293;SDS011;39181;53.440;5.644;2022-07-29T08:26:46;8.90;;;1.23;;
53293;SDS011;39181;53.440;5.644;2022-07-29T08:29:12;4.47;;;1.00;;
53293;SDS011;39181;53.440;5.644;2022-07-29T08:31:38;6.07;;;1.30;;
53293;SDS011;39181;53.440;5.644;2022-07-29T08:34:04;4.95;;;1.00;;
53293;SDS011;39181;53.440;5.644;2022-07-29T08:36:30;6.40;;;0.95;;
53293;SDS011;39181;53.440;5.644;2022-07-29T08:38:57;5.35;;;1.30;;
53293;SDS011;39181;53.440;5.644;2022-07-29T08:41:23;6.55;;;1.10;;
53293;SDS011;39181;53.440;5.644;2022-07-29T08:43:49;4.85;;;1.10;;
53293;SDS011;39181;53.440;5.644;2022-07-29T08:46:16;14.00;;;1.48;;
53293;SDS011;39181;53.440;5.644;2022-07-29T08:48:43;5.07;;;1.15;;
53293;SDS011;39181;53.440;5.644;2022-07-29T08:51:08;7.55;;;1.20;;
53293;SDS011;39181;53.440;5.644;2022-07-29T08:53:40;6.25;;;1.08;;
53293;SDS011;39181;53.440;5.644;2022-07-29T08:56:10;6.50;;;1.00;;
53293;SDS011;39181;53.440;5.644;2022-07-29T08:58:38;6.38;;;1.27;;
53293;SDS011;39181;53.440;5.644;2022-07-29T09:01:04;5.95;;;1.30;;
53293;SDS011;39181;53.440;5.644;2022-07-29T09:03:30;5.47;;;1.02;;
53293;SDS011;39181;53.440;5.644;2022-07-29T09:05:57;6.13;;;1.83;;
53293;SDS011;39181;53.440;5.644;2022-07-29T09:08:24;3.40;;;1.05;;
53293;SDS011;39181;53.440;5.644;2022-07-29T09:10:50;5.40;;;1.38;;
53293;SDS011;39181;53.440;5.644;2022-07-29T09:13:16;4.43;;;1.45;;
53293;SDS011;39181;53.440;5.644;2022-07-29T09:15:42;5.10;;;1.30;;
53293;SDS011;39181;53.440;5.644;2022-07-29T09:18:08;4.20;;;0.90;;
53293;SDS011;39181;53.440;5.644;2022-07-29T09:20:34;4.63;;;1.13;;
53293;SDS011;39181;53.440;5.644;2022-07-29T09:23:18;10.52;;;1.38;;
53293;SDS011;39181;53.440;5.644;2022-07-29T09:25:43;9.90;;;1.45;;
53293;SDS011;39181;53.440;5.644;2022-07-29T09:28:10;6.35;;;1.38;;
53293;SDS011;39181;53.440;5.644;2022-07-29T09:30:50;5.15;;;1.13;;
53293;SDS011;39181;53.440;5.644;2022-07-29T09:33:17;8.32;;;1.80;;
53293;SDS011;39181;53.440;5.644;2022-07-29T09:35:43;5.38;;;1.30;;
53293;SDS011;39181;53.440;5.644;2022-07-29T09:38:09;5.13;;;1.40;;
53293;SDS011;39181;53.440;5.644;2022-07-29T09:40:38;6.10;;;1.20;;
53293;SDS011;39181;53.440;5.644;2022-07-29T09:43:11;4.10;;;1.48;;
53293;SDS011;39181;53.440;5.644;2022-07-29T09:45:38;5.82;;;1.25;;
53293;SDS011;39181;53.440;5.644;2022-07-29T09:48:14;4.00;;;0.98;;
53293;SDS011;39181;53.440;5.644;2022-07-29T09:50:47;4.90;;;1.08;;
53293;SDS011;39181;53.440;5.644;2022-07-29T09:56:00;5.70;;;1.45;;
53293;SDS011;39181;53.440;5.644;2022-07-29T09:58:26;7.45;;;1.25;;
53293;SDS011;39181;53.440;5.644;2022-07-29T10:00:53;6.22;;;1.38;;
53293;SDS011;39181;53.440;5.644;2022-07-29T10:03:20;6.07;;;1.27;;
53293;SDS011;39181;53.440;5.644;2022-07-29T10:05:46;2.83;;;1.10;;
53293;SDS011;39181;53.440;5.644;2022-07-29T10:08:30;5.28;;;1.20;;
53293;SDS011;39181;53.440;5.644;2022-07-29T10:11:08;7.20;;;1.65;;
53293;SDS011;39181;53.440;5.644;2022-07-29T10:13:44;10.05;;;1.35;;
53293;SDS011;39181;53.440;5.644;2022-07-29T10:16:12;6.80;;;1.63;;
53293;SDS011;39181;53.440;5.644;2022-07-29T10:18:39;7.15;;;1.75;;
53293;SDS011;39181;53.440;5.644;2022-07-29T10:21:06;7.20;;;1.27;;
53293;SDS011;39181;53.440;5.644;2022-07-29T10:23:32;4.57;;;1.27;;
53293;SDS011;39181;53.440;5.644;2022-07-29T10:25:59;7.22;;;1.30;;
53293;SDS011;39181;53.440;5.644;2022-07-29T10:28:25;5.50;;;1.13;;
53293;SDS011;39181;53.440;5.644;2022-07-29T10:30:51;7.65;;;1.55;;
53293;SDS011;39181;53.440;5.644;2022-07-29T10:39:36;8.88;;;1.50;;
53293;SDS011;39181;53.440;5.644;2022-07-29T10:42:18;5.25;;;1.55;;
53293;SDS011;39181;53.440;5.644;2022-07-29T10:44:49;6.25;;;2.25;;
53293;SDS011;39181;53.440;5.644;2022-07-29T10:47:19;7.10;;;1.70;;
53293;SDS011;39181;53.440;5.644;2022-07-29T10:55:30;9.63;;;1.60;;
53293;SDS011;39181;53.440;5.644;2022-07-29T11:00:44;7.10;;;1.55;;
53293;SDS011;39181;53.440;5.644;2022-07-29T11:06:14;5.93;;;1.92;;
53293;SDS011;39181;53.440;5.644;2022-07-29T11:08:40;6.75;;;1.67;;
53293;SDS011;39181;53.440;5.644;2022-07-29T11:11:30;7.35;;;1.58;;
53293;SDS011;39181;53.440;5.644;2022-07-29T11:13:56;9.75;;;2.25;;
53293;SDS011;39181;53.440;5.644;2022-07-29T11:16:21;6.80;;;1.52;;
53293;SDS011;39181;53.440;5.644;2022-07-29T11:21:48;8.25;;;1.52;;
53293;SDS011;39181;53.440;5.644;2022-07-29T11:24:15;5.13;;;1.38;;
53293;SDS011;39181;53.440;5.644;2022-07-29T11:27:04;8.13;;;2.30;;
53293;SDS011;39181;53.440;5.644;2022-07-29T11:29:31;12.48;;;2.13;;
53293;SDS011;39181;53.440;5.644;2022-07-29T11:32:10;7.55;;;1.70;;
53293;SDS011;39181;53.440;5.644;2022-07-29T11:34:37;8.15;;;1.48;;
53293;SDS011;39181;53.440;5.644;2022-07-29T11:39:34;6.25;;;2.10;;
53293;SDS011;39181;53.440;5.644;2022-07-29T11:47:37;8.48;;;1.77;;
53293;SDS011;39181;53.440;5.644;2022-07-29T11:50:06;6.55;;;2.08;;
53293;SDS011;39181;53.440;5.644;2022-07-29T11:52:40;5.10;;;1.70;;
53293;SDS011;39181;53.440;5.644;2022-07-29T11:55:15;7.15;;;1.58;;
53293;SDS011;39181;53.440;5.644;2022-07-29T11:57:50;9.45;;;2.15;;
53293;SDS011;39181;53.440;5.644;2022-07-29T12:00:33;7.57;;;2.30;;
53293;SDS011;39181;53.440;5.644;2022-07-29T12:03:03;11.20;;;2.70;;
53293;SDS011;39181;53.440;5.644;2022-07-29T12:05:34;8.50;;;1.90;;
53293;SDS011;39181;53.440;5.644;2022-07-29T12:08:13;7.07;;;1.95;;
53293;SDS011;39181;53.440;5.644;2022-07-29T12:10:47;4.07;;;1.65;;
53293;SDS011;39181;53.440;5.644;2022-07-29T12:13:15;4.93;;;1.98;;
53293;SDS011;39181;53.440;5.644;2022-07-29T12:15:42;6.53;;;1.40;;
53293;SDS011;39181;53.440;5.644;2022-07-29T12:18:19;8.70;;;1.77;;
53293;SDS011;39181;53.440;5.644;2022-07-29T12:20:45;10.02;;;2.17;;
53293;SDS011;39181;53.440;5.644;2022-07-29T12:23:13;9.35;;;2.25;;
53293;SDS011;39181;53.440;5.644;2022-07-29T12:25:40;13.02;;;2.10;;
53293;SDS011;39181;53.440;5.644;2022-07-29T12:28:08;7.70;;;1.85;;
53293;SDS011;39181;53.440;5.644;2022-07-29T12:30:43;6.32;;;1.70;;
53293;SDS011;39181;53.440;5.644;2022-07-29T12:33:15;14.90;;;2.33;;
53293;SDS011;39181;53.440;5.644;2022-07-29T12:35:50;7.30;;;1.90;;
53293;SDS011;39181;53.440;5.644;2022-07-29T12:38:20;7.30;;;2.10;;
53293;SDS011;39181;53.440;5.644;2022-07-29T12:40:47;6.47;;;1.73;;
53293;SDS011;39181;53.440;5.644;2022-07-29T12:43:17;10.82;;;2.20;;
53293;SDS011;39181;53.440;5.644;2022-07-29T12:45:48;8.23;;;1.90;;
53293;SDS011;39181;53.440;5.644;2022-07-29T12:48:16;5.93;;;1.70;;
53293;SDS011;39181;53.440;5.644;2022-07-29T12:50:56;6.75;;;1.67;;
53293;SDS011;39181;53.440;5.644;2022-07-29T12:53:24;10.10;;;1.38;;
53293;SDS011;39181;53.440;5.644;2022-07-29T12:55:50;6.18;;;1.60;;
53293;SDS011;39181;53.440;5.644;2022-07-29T13:01:16;8.65;;;2.05;;
53293;SDS011;39181;53.440;5.644;2022-07-29T13:09:19;10.73;;;2.45;;
53293;SDS011;39181;53.440;5.644;2022-07-29T13:11:51;9.27;;;2.13;;
53293;SDS011;39181;53.440;5.644;2022-07-29T13:19:44;8.40;;;2.25;;
53293;SDS011;39181;53.440;5.644;2022-07-29T13:22:15;6.22;;;2.22;;
53293;SDS011;39181;53.440;5.644;2022-07-29T13:24:45;6.97;;;1.90;;
53293;SDS011;39181;53.440;5.644;2022-07-29T13:27:25;7.90;;;2.20;;
53293;SDS011;39181;53.440;5.644;2022-07-29T13:29:52;7.13;;;2.20;;
53293;SDS011;39181;53.440;5.644;2022-07-29T13:32:21;7.28;;;2.47;;
53293;SDS011;39181;53.440;5.644;2022-07-29T13:34:48;7.50;;;1.92;;
53293;SDS011;39181;53.440;5.644;2022-07-29T13:37:13;6.28;;;2.05;;
53293;SDS011;39181;53.440;5.644;2022-07-29T13:39:40;9.65;;;2.28;;
53293;SDS011;39181;53.440;5.644;2022-07-29T13:42:06;8.07;;;2.42;;
53293;SDS011;39181;53.440;5.644;2022-07-29T13:44:32;7.97;;;1.90;;
53293;SDS011;39181;53.440;5.644;2022-07-29T13:46:58;8.57;;;2.13;;
53293;SDS011;39181;53.440;5.644;2022-07-29T13:49:24;9.02;;;2.88;;
53293;SDS011;39181;53.440;5.644;2022-07-29T13:51:50;10.52;;;2.15;;
53293;SDS011;39181;53.440;5.644;2022-07-29T13:54:16;7.82;;;2.08;;
53293;SDS011;39181;53.440;5.644;2022-07-29T13:56:41;9.63;;;2.40;;
53293;SDS011;39181;53.440;5.644;2022-07-29T13:59:07;14.45;;;2.85;;
53293;SDS011;39181;53.440;5.644;2022-07-29T14:01:33;7.35;;;2.28;;
53293;SDS011;39181;53.440;5.644;2022-07-29T14:04:02;8.38;;;2.22;;
53293;SDS011;39181;53.440;5.644;2022-07-29T14:06:28;9.98;;;2.30;;
53293;SDS011;39181;53.440;5.644;2022-07-29T14:08:53;10.23;;;2.13;;
53293;SDS011;39181;53.440;5.644;2022-07-29T14:11:19;5.85;;;1.88;;
53293;SDS011;39181;53.440;5.644;2022-07-29T14:13:44;9.55;;;2.50;;
53293;SDS011;39181;53.440;5.644;2022-07-29T14:16:10;9.07;;;2.30;;
53293;SDS011;39181;53.440;5.644;2022-07-29T14:18:35;12.65;;;3.00;;
53293;SDS011;39181;53.440;5.644;2022-07-29T14:21:01;10.25;;;2.25;;
53293;SDS011;39181;53.440;5.644;2022-07-29T14:23:27;9.65;;;2.17;;
53293;SDS011;39181;53.440;5.644;2022-07-29T14:25:53;5.90;;;1.90;;
53293;SDS011;39181;53.440;5.644;2022-07-29T14:28:19;11.23;;;2.70;;
53293;SDS011;39181;53.440;5.644;2022-07-29T14:30:45;11.20;;;2.38;;
53293;SDS011;39181;53.440;5.644;2022-07-29T14:33:10;12.63;;;2.63;;
53293;SDS011;39181;53.440;5.644;2022-07-29T14:35:36;10.90;;;2.13;;
53293;SDS011;39181;53.440;5.644;2022-07-29T14:38:02;11.35;;;2.70;;
53293;SDS011;39181;53.440;5.644;2022-07-29T14:40:28;8.90;;;2.22;;
53293;SDS011;39181;53.440;5.644;2022-07-29T14:42:54;12.15;;;2.28;;
53293;SDS011;39181;53.440;5.644;2022-07-29T14:45:19;11.05;;;2.83;;
53293;SDS011;39181;53.440;5.644;2022-07-29T14:47:45;5.70;;;1.90;;
53293;SDS011;39181;53.440;5.644;2022-07-29T14:50:10;12.82;;;3.10;;
53293;SDS011;39181;53.440;5.644;2022-07-29T14:52:37;12.25;;;2.28;;
53293;SDS011;39181;53.440;5.644;2022-07-29T14:55:03;10.07;;;2.25;;
53293;SDS011;39181;53.440;5.644;2022-07-29T14:57:29;10.77;;;2.50;;
53293;SDS011;39181;53.440;5.644;2022-07-29T14:59:55;11.30;;;2.40;;
53293;SDS011;39181;53.440;5.644;2022-07-29T15:02:20;9.05;;;2.55;;
53293;SDS011;39181;53.440;5.644;2022-07-29T15:04:46;8.07;;;2.40;;
53293;SDS011;39181;53.440;5.644;2022-07-29T15:07:13;11.10;;;2.53;;
53293;SDS011;39181;53.440;5.644;2022-07-29T15:09:39;11.48;;;2.88;;
53293;SDS011;39181;53.440;5.644;2022-07-29T15:12:04;7.90;;;2.50;;
53293;SDS011;39181;53.440;5.644;2022-07-29T15:14:31;10.93;;;2.20;;
53293;SDS011;39181;53.440;5.644;2022-07-29T15:16:57;9.13;;;2.22;;
53293;SDS011;39181;53.440;5.644;2022-07-29T15:19:23;9.85;;;2.50;;
53293;SDS011;39181;53.440;5.644;2022-07-29T15:21:48;12.18;;;3.50;;
53293;SDS011;39181;53.440;5.644;2022-07-29T15:24:18;13.15;;;3.15;;
53293;SDS011;39181;53.440;5.644;2022-07-29T15:26:43;7.93;;;2.42;;
53293;SDS011;39181;53.440;5.644;2022-07-29T15:29:09;9.05;;;2.65;;
53293;SDS011;39181;53.440;5.644;2022-07-29T15:31:35;5.75;;;2.25;;
53293;SDS011;39181;53.440;5.644;2022-07-29T15:34:01;13.02;;;2.40;;
53293;SDS011;39181;53.440;5.644;2022-07-29T15:36:26;10.77;;;2.40;;
53293;SDS011;39181;53.440;5.644;2022-07-29T15:38:52;6.95;;;2.35;;
53293;SDS011;39181;53.440;5.644;2022-07-29T15:41:20;15.13;;;3.67;;